createdAt,value
2018-07-08T00:01:23.847Z,22.30
2018-07-08T00:03:52.512Z,22.30
2018-07-08T00:06:21.070Z,22.20
2018-07-08T00:08:49.687Z,22.20
2018-07-08T00:11:18.246Z,22.20
2018-07-08T00:13:46.831Z,22.10
2018-07-08T00:16:15.404Z,22.10
2018-07-08T00:18:44.109Z,22.10
2018-07-08T00:21:12.675Z,22.10
2018-07-08T00:23:41.236Z,22.00
2018-07-08T00:26:09.804Z,22.00
2018-07-08T00:28:38.332Z,21.90
2018-07-08T00:31:07.339Z,21.90
2018-07-08T00:33:35.899Z,21.90
2018-07-08T00:36:04.505Z,21.80
2018-07-08T00:38:33.277Z,21.80
2018-07-08T00:41:01.868Z,21.80
2018-07-08T00:43:30.405Z,21.70
2018-07-08T00:48:27.220Z,21.70
2018-07-08T00:50:55.736Z,21.60
2018-07-08T00:53:24.292Z,21.60
2018-07-08T00:55:52.904Z,21.60
2018-07-08T00:58:21.438Z,21.50
2018-07-08T01:00:50.063Z,21.50
2018-07-08T01:03:18.637Z,21.50
2018-07-08T01:05:47.161Z,21.50
2018-07-08T01:08:15.769Z,21.50
2018-07-08T01:10:44.343Z,21.40
2018-07-08T01:13:12.972Z,21.40
2018-07-08T01:15:41.468Z,21.30
2018-07-08T01:18:10.127Z,21.30
2018-07-08T01:20:38.800Z,21.30
2018-07-08T01:23:07.531Z,21.30
2018-07-08T01:25:47.162Z,21.20
2018-07-08T01:28:15.680Z,21.20
2018-07-08T01:30:44.172Z,21.20
2018-07-08T01:33:12.695Z,21.10
2018-07-08T01:35:41.305Z,21.10
2018-07-08T01:38:09.780Z,21.10
2018-07-08T01:43:06.497Z,21.10
2018-07-08T01:45:35.045Z,21.00
2018-07-08T01:48:03.676Z,21.00
2018-07-08T01:50:32.202Z,21.00
2018-07-08T01:53:00.694Z,21.00
2018-07-08T01:55:29.214Z,21.00
2018-07-08T01:57:57.778Z,20.90
2018-07-08T02:00:26.645Z,20.90
2018-07-08T02:02:55.259Z,20.90
2018-07-08T02:05:23.803Z,20.90
2018-07-08T02:07:52.857Z,21.00
2018-07-08T02:10:21.410Z,21.00
2018-07-08T02:12:50.232Z,21.00
2018-07-08T02:15:18.850Z,21.00
2018-07-08T02:17:47.422Z,21.00
2018-07-08T02:20:15.995Z,21.10
2018-07-08T02:22:44.768Z,21.10
2018-07-08T02:25:12.533Z,21.20
2018-07-08T02:27:40.435Z,21.20
2018-07-08T02:30:09.289Z,21.10
2018-07-08T02:32:38.875Z,21.10
2018-07-08T02:35:07.474Z,21.10
2018-07-08T02:37:36.060Z,21.10
2018-07-08T02:40:05.016Z,21.20
2018-07-08T02:42:33.584Z,21.20
2018-07-08T02:45:02.164Z,21.30
2018-07-08T02:47:30.787Z,21.30
2018-07-08T02:50:00.047Z,21.30
2018-07-08T02:52:28.678Z,21.30
2018-07-08T02:57:25.364Z,21.30
2018-07-08T02:59:53.999Z,21.30
2018-07-08T03:02:22.646Z,21.30
2018-07-08T03:04:51.223Z,21.30
2018-07-08T03:07:19.744Z,21.30
2018-07-08T03:09:48.347Z,21.30
2018-07-08T03:12:16.878Z,21.30
2018-07-08T03:14:45.403Z,21.30
2018-07-08T03:17:13.892Z,21.30
2018-07-08T03:19:42.563Z,21.20
2018-07-08T03:22:12.121Z,21.20
2018-07-08T03:24:40.761Z,21.20
2018-07-08T03:27:09.416Z,21.20
2018-07-08T03:29:37.972Z,21.10
2018-07-08T03:32:06.627Z,21.10
2018-07-08T03:34:35.154Z,21.10
2018-07-08T03:37:03.741Z,21.10
2018-07-08T03:39:32.287Z,21.10
2018-07-08T03:42:00.946Z,21.00
2018-07-08T03:44:29.543Z,21.00
2018-07-08T03:46:58.451Z,21.00
2018-07-08T03:49:26.992Z,20.90
2018-07-08T03:51:55.543Z,20.90
2018-07-08T03:54:28.867Z,20.90
2018-07-08T03:56:57.400Z,20.80
2018-07-08T03:59:26.098Z,20.80
2018-07-08T04:01:54.931Z,20.80
2018-07-08T04:04:23.498Z,20.70
2018-07-08T04:06:52.052Z,20.70
2018-07-08T04:09:20.975Z,20.70
2018-07-08T04:11:49.873Z,20.60
2018-07-08T04:14:18.427Z,20.60
2018-07-08T04:16:47.661Z,20.60
2018-07-08T04:19:16.554Z,20.60
2018-07-08T04:24:13.507Z,20.60
2018-07-08T04:26:42.014Z,20.50
2018-07-08T04:29:10.574Z,20.50
2018-07-08T04:31:39.086Z,20.50
2018-07-08T04:34:06.869Z,20.50
2018-07-08T04:36:35.361Z,20.50
2018-07-08T04:39:04.996Z,20.40
2018-07-08T04:41:33.612Z,20.40
2018-07-08T04:44:02.483Z,20.40
2018-07-08T04:46:31.254Z,20.50
2018-07-08T04:48:59.738Z,20.50
2018-07-08T04:51:28.253Z,20.60
2018-07-08T04:53:56.743Z,20.60
2018-07-08T04:56:25.486Z,20.70
2018-07-08T04:58:54.018Z,20.80
2018-07-08T05:01:22.580Z,20.80
2018-07-08T05:03:51.171Z,20.90
2018-07-08T05:06:19.789Z,21.00
2018-07-08T05:08:48.264Z,21.00
2018-07-08T05:11:16.887Z,21.10
2018-07-08T05:13:45.394Z,21.10
2018-07-08T05:16:13.901Z,21.20
2018-07-08T05:18:42.450Z,21.30
2018-07-08T05:21:11.094Z,21.30
2018-07-08T05:23:39.691Z,21.30
2018-07-08T05:26:08.318Z,21.40
2018-07-08T05:28:36.840Z,21.40
2018-07-08T05:31:05.379Z,21.40
2018-07-08T05:33:34.082Z,21.40
2018-07-08T05:36:02.635Z,21.50
2018-07-08T05:38:31.204Z,21.50
2018-07-08T05:40:59.682Z,21.50
2018-07-08T05:45:56.448Z,21.50
2018-07-08T05:48:25.127Z,21.60
2018-07-08T05:50:53.766Z,21.60
2018-07-08T05:53:22.379Z,21.60
2018-07-08T05:55:50.963Z,21.60
2018-07-08T05:58:19.643Z,21.70
2018-07-08T06:00:48.214Z,21.70
2018-07-08T06:03:16.975Z,21.80
2018-07-08T06:05:45.629Z,21.80
2018-07-08T06:08:14.213Z,21.90
2018-07-08T06:10:42.777Z,21.90
2018-07-08T06:13:11.314Z,21.90
2018-07-08T06:15:39.912Z,22.00
2018-07-08T06:18:08.618Z,22.00
2018-07-08T06:20:37.428Z,22.10
2018-07-08T06:23:05.966Z,22.10
2018-07-08T06:25:34.610Z,22.10
2018-07-08T06:28:03.199Z,22.20
2018-07-08T06:30:31.724Z,22.20
2018-07-08T06:33:00.253Z,22.30
2018-07-08T06:35:28.861Z,22.30
2018-07-08T06:37:57.821Z,22.40
2018-07-08T06:40:26.332Z,22.60
2018-07-08T06:42:54.943Z,22.70
2018-07-08T06:45:23.617Z,22.80
2018-07-08T06:47:52.151Z,23.00
2018-07-08T06:50:20.696Z,23.00
2018-07-08T06:52:49.277Z,23.00
2018-07-08T06:55:17.803Z,23.10
2018-07-08T06:57:46.382Z,23.20
2018-07-08T07:00:14.911Z,23.30
2018-07-08T07:02:43.788Z,23.40
2018-07-08T07:05:12.331Z,23.40
2018-07-08T07:07:41.050Z,23.50
2018-07-08T07:10:09.767Z,23.60
2018-07-08T07:12:38.427Z,23.70
2018-07-08T07:15:07.101Z,23.70
2018-07-08T07:17:35.761Z,23.80
2018-07-08T07:20:04.701Z,23.80
2018-07-08T07:22:33.276Z,23.90
2018-07-08T07:25:01.981Z,23.90
2018-07-08T07:27:30.532Z,23.80
2018-07-08T07:29:59.102Z,23.80
2018-07-08T07:32:26.805Z,23.80
2018-07-08T07:34:54.612Z,23.70
2018-07-08T07:37:23.328Z,23.60
2018-07-08T07:39:51.841Z,23.50
2018-07-08T07:42:20.504Z,23.40
2018-07-08T07:44:49.029Z,23.50
2018-07-08T07:47:17.650Z,23.60
2018-07-08T07:49:46.258Z,23.60
2018-07-08T07:52:14.912Z,23.70
2018-07-08T07:54:44.332Z,23.60
2018-07-08T07:57:13.835Z,23.70
2018-07-08T07:59:42.705Z,23.70
2018-07-08T08:02:11.333Z,23.80
2018-07-08T08:04:39.888Z,23.80
2018-07-08T08:07:08.576Z,23.80
2018-07-08T08:09:37.158Z,23.80
2018-07-08T08:12:05.719Z,23.90
2018-07-08T08:14:34.228Z,23.90
2018-07-08T08:17:01.981Z,23.90
2018-07-08T08:19:29.711Z,23.90
2018-07-08T08:21:57.501Z,23.80
2018-07-08T08:24:25.245Z,23.70
2018-07-08T08:26:53.402Z,23.70
2018-07-08T08:29:21.122Z,23.70
2018-07-08T08:31:48.976Z,23.60
2018-07-08T08:34:58.003Z,23.60
2018-07-08T08:37:27.316Z,23.60
2018-07-08T08:39:55.449Z,23.60
2018-07-08T08:42:23.314Z,23.60
2018-07-08T08:44:51.714Z,23.60
2018-07-08T08:47:20.040Z,23.60
2018-07-08T08:49:48.890Z,23.70
2018-07-08T08:52:16.835Z,23.60
2018-07-08T08:54:44.805Z,23.70
2018-07-08T08:57:12.935Z,23.70
2018-07-08T08:59:40.698Z,23.70
2018-07-08T09:02:08.805Z,23.70
2018-07-08T09:04:37.219Z,23.80
2018-07-08T09:07:05.048Z,23.80
2018-07-08T09:09:32.890Z,23.80
2018-07-08T09:12:00.636Z,23.70
2018-07-08T09:14:28.426Z,23.80
2018-07-08T09:16:56.311Z,23.80
2018-07-08T09:19:24.435Z,23.80
2018-07-08T09:21:53.370Z,23.90
2018-07-08T09:24:21.172Z,23.90
2018-07-08T09:26:49.030Z,23.90
2018-07-08T09:29:16.810Z,24.00
2018-07-08T09:34:12.166Z,24.00
2018-07-08T09:36:39.987Z,24.10
2018-07-08T09:39:09.656Z,24.10
2018-07-08T09:41:37.365Z,24.10
2018-07-08T09:44:05.248Z,24.20
2018-07-08T09:46:33.065Z,24.20
2018-07-08T09:49:01.179Z,24.20
2018-07-08T09:51:29.286Z,24.30
2018-07-08T09:53:57.122Z,24.30
2018-07-08T09:56:25.319Z,24.40
2018-07-08T09:58:53.288Z,24.40
2018-07-08T10:01:21.260Z,24.40
2018-07-08T10:03:49.103Z,24.40
2018-07-08T10:06:16.904Z,24.40
2018-07-08T10:08:44.778Z,24.50
2018-07-08T10:11:12.514Z,24.50
2018-07-08T10:13:40.449Z,24.60
2018-07-08T10:16:08.317Z,24.60
2018-07-08T10:18:36.226Z,24.60
2018-07-08T10:21:04.002Z,24.60
2018-07-08T10:23:31.802Z,24.70
2018-07-08T10:25:59.623Z,24.70
2018-07-08T10:28:27.482Z,24.80
2018-07-08T10:30:55.467Z,24.80
2018-07-08T10:33:23.207Z,24.90
2018-07-08T10:35:54.049Z,25.00
2018-07-08T10:38:21.910Z,25.00
2018-07-08T10:40:49.651Z,25.10
2018-07-08T10:43:17.775Z,25.20
2018-07-08T10:45:46.097Z,25.20
2018-07-08T10:48:14.103Z,25.30
2018-07-08T10:50:41.955Z,25.30
2018-07-08T10:53:09.911Z,25.40
2018-07-08T10:55:37.838Z,25.50
2018-07-08T10:58:05.543Z,25.60
2018-07-08T11:00:33.533Z,25.60
2018-07-08T11:03:01.238Z,25.70
2018-07-08T11:05:29.163Z,25.70
2018-07-08T11:07:57.442Z,25.80
2018-07-08T11:10:25.500Z,25.90
2018-07-08T11:12:53.241Z,26.00
2018-07-08T11:15:21.142Z,26.10
2018-07-08T11:17:49.465Z,26.20
2018-07-08T11:20:17.531Z,26.30
2018-07-08T11:22:45.752Z,26.30
2018-07-08T11:25:13.504Z,26.40
2018-07-08T11:27:41.351Z,26.60
2018-07-08T11:30:09.225Z,26.70
2018-07-08T11:32:37.503Z,26.80
2018-07-08T11:35:05.908Z,26.90
2018-07-08T11:37:33.753Z,27.10
2018-07-08T11:40:01.724Z,27.20
2018-07-08T11:42:29.485Z,27.30
2018-07-08T11:44:57.231Z,27.40
2018-07-08T11:47:25.000Z,27.50
2018-07-08T11:49:52.794Z,27.60
2018-07-08T11:52:20.832Z,27.60
2018-07-08T11:54:48.615Z,27.70
2018-07-08T11:57:16.353Z,27.70
2018-07-08T11:59:44.149Z,27.90
2018-07-08T12:02:11.936Z,28.00
2018-07-08T12:04:39.907Z,28.20
2018-07-08T12:07:07.746Z,28.30
2018-07-08T12:09:35.598Z,28.40
2018-07-08T12:12:03.379Z,28.50
2018-07-08T12:14:31.347Z,28.60
2018-07-08T12:16:59.193Z,28.60
2018-07-08T12:19:26.962Z,28.60
2018-07-08T12:21:54.827Z,28.60
2018-07-08T12:24:22.721Z,28.50
2018-07-08T12:26:50.495Z,28.60
2018-07-08T12:29:18.499Z,28.60
2018-07-08T12:31:46.270Z,28.70
2018-07-08T12:34:14.249Z,28.80
2018-07-08T12:36:42.167Z,28.90
2018-07-08T12:39:11.794Z,29.10
2018-07-08T12:41:40.091Z,29.20
2018-07-08T12:44:07.853Z,29.10
2018-07-08T12:46:35.909Z,29.10
2018-07-08T12:49:03.878Z,28.80
2018-07-08T12:51:31.660Z,28.70
2018-07-08T12:53:59.482Z,28.50
2018-07-08T12:56:27.273Z,28.60
2018-07-08T12:58:55.420Z,28.80
2018-07-08T13:01:23.246Z,28.90
2018-07-08T13:03:51.321Z,28.90
2018-07-08T13:06:19.107Z,28.80
2018-07-08T13:08:46.888Z,28.80
2018-07-08T13:11:14.691Z,28.60
2018-07-08T13:13:42.766Z,28.70
2018-07-08T13:16:10.554Z,28.70
2018-07-08T13:18:38.653Z,28.70
2018-07-08T13:21:06.586Z,28.80
2018-07-08T13:23:34.539Z,29.00
2018-07-08T13:26:02.453Z,29.20
2018-07-08T13:28:30.319Z,29.40
2018-07-08T13:30:58.116Z,29.70
2018-07-08T13:33:26.253Z,29.70
2018-07-08T13:35:54.173Z,29.60
2018-07-08T13:38:22.036Z,29.70
2018-07-08T13:40:49.998Z,29.90
2018-07-08T13:43:17.839Z,30.10
2018-07-08T13:45:45.725Z,30.20
2018-07-08T13:48:13.569Z,30.30
2018-07-08T13:50:41.811Z,30.30
2018-07-08T13:53:10.069Z,30.20
2018-07-08T13:55:37.905Z,29.90
2018-07-08T13:58:05.816Z,29.80
2018-07-08T14:00:33.782Z,29.90
2018-07-08T14:03:01.778Z,30.10
2018-07-08T14:05:29.603Z,30.20
2018-07-08T14:07:57.356Z,30.40
2018-07-08T14:10:25.115Z,30.50
2018-07-08T14:12:52.991Z,30.60
2018-07-08T14:15:20.749Z,30.70
2018-07-08T14:17:48.516Z,30.80
2018-07-08T14:20:16.561Z,30.90
2018-07-08T14:22:44.248Z,31.00
2018-07-08T14:25:11.993Z,31.00
2018-07-08T14:27:39.840Z,31.10
2018-07-08T14:30:07.586Z,31.20
2018-07-08T14:32:35.353Z,31.20
2018-07-08T14:35:03.143Z,31.30
2018-07-08T14:37:30.952Z,31.40
2018-07-08T14:39:58.804Z,31.30
2018-07-08T14:42:26.637Z,31.40
2018-07-08T14:44:54.452Z,31.40
2018-07-08T14:47:22.400Z,31.40
2018-07-08T14:49:50.185Z,31.50
2018-07-08T14:52:17.943Z,31.50
2018-07-08T14:54:45.770Z,31.60
2018-07-08T14:57:13.615Z,31.60
2018-07-08T15:02:09.088Z,31.70
2018-07-08T15:04:37.489Z,31.60
2018-07-08T15:07:05.278Z,31.60
2018-07-08T15:09:33.072Z,31.60
2018-07-08T15:12:00.936Z,31.60
2018-07-08T15:14:28.808Z,31.50
2018-07-08T15:16:56.561Z,31.50
2018-07-08T15:19:24.317Z,31.60
2018-07-08T15:21:52.544Z,31.40
2018-07-08T15:24:20.353Z,31.40
2018-07-08T15:26:48.229Z,31.40
2018-07-08T15:29:16.048Z,31.40
2018-07-08T15:31:43.787Z,31.40
2018-07-08T15:34:11.895Z,31.30
2018-07-08T15:36:39.908Z,31.30
2018-07-08T15:39:08.294Z,31.30
2018-07-08T15:41:36.465Z,31.30
2018-07-08T15:44:04.223Z,31.30
2018-07-08T15:46:32.079Z,31.30
2018-07-08T15:49:00.536Z,31.20
2018-07-08T15:51:28.352Z,31.30
2018-07-08T15:53:57.653Z,31.20
2018-07-08T15:56:25.464Z,31.10
2018-07-08T15:58:53.503Z,31.00
2018-07-08T16:01:21.327Z,31.00
2018-07-08T16:03:49.099Z,31.00
2018-07-08T16:06:17.365Z,31.00
2018-07-08T16:08:45.161Z,31.00
2018-07-08T16:11:12.898Z,31.10
2018-07-08T16:13:41.264Z,31.00
2018-07-08T16:16:09.162Z,30.90
2018-07-08T16:18:37.047Z,30.90
2018-07-08T16:21:04.958Z,30.80
2018-07-08T16:23:32.826Z,30.70
2018-07-08T16:26:00.816Z,30.60
2018-07-08T16:28:28.685Z,30.60
2018-07-08T16:30:56.607Z,30.60
2018-07-08T16:33:24.393Z,30.70
2018-07-08T16:35:55.222Z,30.70
2018-07-08T16:38:23.407Z,30.60
2018-07-08T16:40:52.162Z,30.60
2018-07-08T16:43:20.055Z,30.60
2018-07-08T16:45:48.338Z,30.50
2018-07-08T16:48:16.083Z,30.50
2018-07-08T16:50:43.954Z,30.50
2018-07-08T16:53:12.001Z,30.50
2018-07-08T16:55:39.878Z,30.40
2018-07-08T16:58:07.852Z,30.40
2018-07-08T17:00:35.773Z,30.40
2018-07-08T17:03:03.775Z,30.40
2018-07-08T17:05:31.992Z,30.40
2018-07-08T17:07:59.794Z,30.30
2018-07-08T17:10:27.659Z,30.30
2018-07-08T17:12:55.862Z,30.20
2018-07-08T17:15:24.148Z,30.10
2018-07-08T17:17:52.007Z,30.10
2018-07-08T17:20:20.274Z,30.00
2018-07-08T17:22:48.336Z,29.90
2018-07-08T17:25:17.935Z,29.80
2018-07-08T17:27:46.668Z,29.80
2018-07-08T17:30:16.023Z,29.80
2018-07-08T17:32:45.036Z,29.80
2018-07-08T17:35:13.875Z,29.80
2018-07-08T17:37:42.613Z,29.80
2018-07-08T17:40:11.422Z,29.70
2018-07-08T17:42:39.539Z,29.70
2018-07-08T17:45:08.223Z,29.60
2018-07-08T17:47:38.387Z,29.60
2018-07-08T17:52:35.500Z,29.60
2018-07-08T17:55:04.313Z,29.60
2018-07-08T17:57:33.117Z,29.50
2018-07-08T18:00:02.791Z,29.50
2018-07-08T18:02:32.916Z,29.40
2018-07-08T18:05:01.906Z,29.30
2018-07-08T18:07:31.025Z,29.30
2018-07-08T18:10:00.051Z,29.10
2018-07-08T18:12:28.815Z,29.10
2018-07-08T18:14:57.432Z,29.00
2018-07-08T18:17:26.168Z,28.90
2018-07-08T18:19:54.800Z,28.90
2018-07-08T18:22:23.651Z,28.80
2018-07-08T18:24:52.415Z,28.70
2018-07-08T18:27:21.092Z,28.60
2018-07-08T18:29:49.849Z,28.60
2018-07-08T18:32:18.553Z,28.50
2018-07-08T18:34:47.483Z,28.40
2018-07-08T18:37:16.260Z,28.40
2018-07-08T18:39:45.497Z,28.30
2018-07-08T18:42:14.292Z,28.30
2018-07-08T18:44:43.191Z,28.20
2018-07-08T18:47:12.177Z,28.10
2018-07-08T18:49:40.965Z,28.00
2018-07-08T18:52:10.393Z,28.00
2018-07-08T18:54:39.240Z,27.90
2018-07-08T18:57:08.083Z,27.80
2018-07-08T18:59:36.776Z,27.70
2018-07-08T19:02:05.564Z,27.60
2018-07-08T19:04:34.291Z,27.50
2018-07-08T19:07:03.176Z,27.40
2018-07-08T19:09:31.837Z,27.30
2018-07-08T19:12:00.546Z,27.20
2018-07-08T19:14:29.197Z,27.10
2018-07-08T19:16:58.005Z,27.00
2018-07-08T19:19:26.672Z,26.90
2018-07-08T19:21:55.394Z,26.80
2018-07-08T19:24:24.252Z,26.70
2018-07-08T19:26:53.055Z,26.60
2018-07-08T19:29:21.790Z,26.50
2018-07-08T19:31:50.485Z,26.40
2018-07-08T19:34:19.424Z,26.40
2018-07-08T19:36:48.364Z,26.20
2018-07-08T19:39:17.052Z,26.10
2018-07-08T19:41:46.106Z,26.10
2018-07-08T19:44:14.773Z,26.00
2018-07-08T19:46:43.683Z,25.90
2018-07-08T19:49:12.401Z,25.80
2018-07-08T19:51:41.148Z,25.70
2018-07-08T19:54:09.985Z,25.60
2018-07-08T19:56:38.834Z,25.50
2018-07-08T19:59:07.512Z,25.40
2018-07-08T20:01:36.331Z,25.40
2018-07-08T20:04:05.382Z,25.30
2018-07-08T20:06:34.141Z,25.20
2018-07-08T20:09:03.028Z,25.10
2018-07-08T20:11:31.811Z,25.10
2018-07-08T20:14:00.635Z,25.00
2018-07-08T20:16:29.582Z,24.90
2018-07-08T20:18:58.230Z,24.90
2018-07-08T20:21:27.158Z,24.80
2018-07-08T20:23:55.570Z,24.80
2018-07-08T20:26:24.315Z,24.70
2018-07-08T20:28:53.131Z,24.60
2018-07-08T20:31:21.863Z,24.60
2018-07-08T20:33:50.700Z,24.50
2018-07-08T20:36:19.368Z,24.50
2018-07-08T20:38:48.162Z,24.40
2018-07-08T20:41:17.004Z,24.40
2018-07-08T20:43:45.721Z,24.30
2018-07-08T20:46:14.649Z,24.20
2018-07-08T20:48:43.433Z,24.20
2018-07-08T20:51:12.173Z,24.30
2018-07-08T20:53:41.201Z,24.20
2018-07-08T20:56:09.912Z,24.20
2018-07-08T20:58:38.633Z,24.10
2018-07-08T21:01:07.668Z,24.10
2018-07-08T21:03:36.337Z,24.00
2018-07-08T21:06:05.035Z,23.90
2018-07-08T21:11:02.033Z,23.80
2018-07-08T21:13:30.668Z,23.80
2018-07-08T21:15:59.446Z,23.80
2018-07-08T21:18:28.199Z,23.70
2018-07-08T21:20:56.960Z,23.60
2018-07-08T21:23:25.630Z,23.60
2018-07-08T21:25:54.321Z,23.60
2018-07-08T21:28:23.043Z,23.60
2018-07-08T21:30:51.863Z,23.60
2018-07-08T21:33:20.701Z,23.50
2018-07-08T21:35:49.497Z,23.50
2018-07-08T21:38:18.170Z,23.50
2018-07-08T21:40:46.774Z,23.40
2018-07-08T21:43:15.496Z,23.40
2018-07-08T21:45:44.231Z,23.30
2018-07-08T21:48:12.813Z,23.30
2018-07-08T21:50:41.413Z,23.30
2018-07-08T21:53:10.083Z,23.30
2018-07-08T21:55:38.722Z,23.30
2018-07-08T21:58:07.525Z,23.30
2018-07-08T22:00:36.347Z,23.30
2018-07-08T22:03:05.302Z,23.20
2018-07-08T22:05:33.872Z,23.20
2018-07-08T22:08:04.649Z,23.10
2018-07-08T22:10:34.065Z,23.10
2018-07-08T22:13:03.580Z,23.00
2018-07-08T22:15:32.221Z,23.00
2018-07-08T22:18:00.859Z,22.90
2018-07-08T22:20:29.714Z,22.90
2018-07-08T22:22:58.442Z,22.80
2018-07-08T22:25:27.232Z,22.80
2018-07-08T22:27:55.899Z,22.80
2018-07-08T22:30:24.513Z,22.70
2018-07-08T22:32:53.173Z,22.70
2018-07-08T22:35:21.872Z,22.70
2018-07-08T22:37:50.545Z,22.60
2018-07-08T22:40:19.400Z,22.50
2018-07-08T22:42:48.156Z,22.50
2018-07-08T22:45:16.843Z,22.40
2018-07-08T22:47:45.487Z,22.30
2018-07-08T22:50:14.080Z,22.30
2018-07-08T22:52:42.741Z,22.20
2018-07-08T22:55:11.433Z,22.20
2018-07-08T22:57:39.950Z,22.20
2018-07-08T23:00:19.838Z,22.20
2018-07-08T23:02:48.974Z,22.20
2018-07-08T23:05:17.786Z,22.20
2018-07-08T23:10:14.641Z,22.10
2018-07-08T23:12:43.175Z,22.10
2018-07-08T23:15:11.744Z,22.00
2018-07-08T23:17:44.586Z,22.00
2018-07-08T23:20:13.283Z,22.00
2018-07-08T23:22:52.902Z,22.00
2018-07-08T23:25:21.404Z,21.90
2018-07-08T23:27:49.960Z,21.90
2018-07-08T23:30:18.499Z,21.90
2018-07-08T23:32:47.134Z,21.80
2018-07-08T23:35:15.725Z,21.80
2018-07-08T23:37:44.443Z,21.80
2018-07-08T23:40:12.970Z,21.80
2018-07-08T23:42:41.479Z,21.80
2018-07-08T23:47:38.588Z,21.70
2018-07-08T23:50:07.170Z,21.60
2018-07-08T23:52:35.776Z,21.60
2018-07-08T23:55:04.440Z,21.60
2018-07-08T23:57:32.993Z,21.60
